sensor_id;sensor_type;location;lat;lon;timestamp;P1;durP1;ratioP1;P2;durP2;ratioP2
15764;SDS011;7983;50.744;7.086;2023-01-15T00:00:29;0.50;;;0.30;;
15764;SDS011;7983;50.744;7.086;2023-01-15T00:02:57;0.87;;;0.33;;
15764;SDS011;7983;50.744;7.086;2023-01-15T00:05:23;1.40;;;0.60;;
15764;SDS011;7983;50.744;7.086;2023-01-15T00:07:48;0.80;;;0.43;;
15764;SDS011;7983;50.744;7.086;2023-01-15T00:10:20;0.97;;;0.60;;
15764;SDS011;7983;50.744;7.086;2023-01-15T00:12:45;0.57;;;0.30;;
15764;SDS011;7983;50.744;7.086;2023-01-15T00:15:11;0.67;;;0.40;;
15764;SDS011;7983;50.744;7.086;2023-01-15T00:17:42;1.20;;;0.40;;
15764;SDS011;7983;50.744;7.086;2023-01-15T00:20:13;1.27;;;0.60;;
15764;SDS011;7983;50.744;7.086;2023-01-15T00:22:41;0.73;;;0.40;;
15764;SDS011;7983;50.744;7.086;2023-01-15T00:25:09;1.03;;;0.40;;
15764;SDS011;7983;50.744;7.086;2023-01-15T00:27:56;1.50;;;0.50;;
15764;SDS011;7983;50.744;7.086;2023-01-15T00:30:22;1.00;;;0.43;;
15764;SDS011;7983;50.744;7.086;2023-01-15T00:32:48;2.43;;;0.47;;
15764;SDS011;7983;50.744;7.086;2023-01-15T00:35:18;0.63;;;0.40;;
15764;SDS011;7983;50.744;7.086;2023-01-15T00:37:47;0.80;;;0.40;;
15764;SDS011;7983;50.744;7.086;2023-01-15T00:40:14;1.17;;;0.40;;
15764;SDS011;7983;50.744;7.086;2023-01-15T00:42:43;0.60;;;0.30;;
15764;SDS011;7983;50.744;7.086;2023-01-15T00:45:10;1.43;;;0.50;;
15764;SDS011;7983;50.744;7.086;2023-01-15T00:47:36;0.97;;;0.33;;
15764;SDS011;7983;50.744;7.086;2023-01-15T00:50:07;0.70;;;0.37;;
15764;SDS011;7983;50.744;7.086;2023-01-15T00:52:36;1.47;;;0.50;;
15764;SDS011;7983;50.744;7.086;2023-01-15T00:55:05;0.60;;;0.40;;
15764;SDS011;7983;50.744;7.086;2023-01-15T00:57:32;1.03;;;0.50;;
15764;SDS011;7983;50.744;7.086;2023-01-15T00:59:58;0.80;;;0.40;;
15764;SDS011;7983;50.744;7.086;2023-01-15T01:02:23;1.43;;;0.43;;
15764;SDS011;7983;50.744;7.086;2023-01-15T01:04:49;1.30;;;0.37;;
15764;SDS011;7983;50.744;7.086;2023-01-15T01:07:18;0.80;;;0.40;;
15764;SDS011;7983;50.744;7.086;2023-01-15T01:09:44;0.70;;;0.40;;
15764;SDS011;7983;50.744;7.086;2023-01-15T01:12:09;2.20;;;0.50;;
15764;SDS011;7983;50.744;7.086;2023-01-15T01:14:36;1.40;;;0.50;;
15764;SDS011;7983;50.744;7.086;2023-01-15T01:17:02;1.07;;;0.63;;
15764;SDS011;7983;50.744;7.086;2023-01-15T01:19:28;0.47;;;0.30;;
15764;SDS011;7983;50.744;7.086;2023-01-15T01:21:56;0.67;;;0.40;;
15764;SDS011;7983;50.744;7.086;2023-01-15T01:24:22;0.63;;;0.47;;
15764;SDS011;7983;50.744;7.086;2023-01-15T01:26:51;0.70;;;0.40;;
15764;SDS011;7983;50.744;7.086;2023-01-15T01:29:20;1.60;;;0.80;;
15764;SDS011;7983;50.744;7.086;2023-01-15T01:31:46;1.13;;;0.30;;
15764;SDS011;7983;50.744;7.086;2023-01-15T01:34:13;0.77;;;0.40;;
15764;SDS011;7983;50.744;7.086;2023-01-15T01:36:41;0.87;;;0.40;;
15764;SDS011;7983;50.744;7.086;2023-01-15T01:39:12;0.90;;;0.30;;
15764;SDS011;7983;50.744;7.086;2023-01-15T01:41:39;0.80;;;0.40;;
15764;SDS011;7983;50.744;7.086;2023-01-15T01:44:57;0.67;;;0.40;;
15764;SDS011;7983;50.744;7.086;2023-01-15T01:46:55;1.17;;;0.47;;
15764;SDS011;7983;50.744;7.086;2023-01-15T01:49:22;1.00;;;0.37;;
15764;SDS011;7983;50.744;7.086;2023-01-15T01:51:49;1.67;;;0.40;;
15764;SDS011;7983;50.744;7.086;2023-01-15T01:54:28;0.77;;;0.40;;
15764;SDS011;7983;50.744;7.086;2023-01-15T01:56:58;1.57;;;0.40;;
15764;SDS011;7983;50.744;7.086;2023-01-15T01:59:27;0.40;;;0.30;;
15764;SDS011;7983;50.744;7.086;2023-01-15T02:01:55;0.77;;;0.30;;
15764;SDS011;7983;50.744;7.086;2023-01-15T02:04:23;0.40;;;0.30;;
15764;SDS011;7983;50.744;7.086;2023-01-15T02:06:55;1.23;;;0.43;;
15764;SDS011;7983;50.744;7.086;2023-01-15T02:09:22;0.30;;;0.30;;
15764;SDS011;7983;50.744;7.086;2023-01-15T02:11:48;1.40;;;0.50;;
15764;SDS011;7983;50.744;7.086;2023-01-15T02:14:24;0.70;;;0.30;;
15764;SDS011;7983;50.744;7.086;2023-01-15T02:25:19;0.77;;;0.20;;
15764;SDS011;7983;50.744;7.086;2023-01-15T02:30:41;0.50;;;0.30;;
15764;SDS011;7983;50.744;7.086;2023-01-15T02:33:21;0.60;;;0.40;;
15764;SDS011;7983;50.744;7.086;2023-01-15T02:35:58;0.67;;;0.40;;
15764;SDS011;7983;50.744;7.086;2023-01-15T02:38:32;0.40;;;0.20;;
15764;SDS011;7983;50.744;7.086;2023-01-15T02:41:03;0.63;;;0.30;;
15764;SDS011;7983;50.744;7.086;2023-01-15T02:43:33;1.07;;;0.30;;
15764;SDS011;7983;50.744;7.086;2023-01-15T02:46:03;1.07;;;0.30;;
15764;SDS011;7983;50.744;7.086;2023-01-15T02:48:33;1.47;;;0.40;;
15764;SDS011;7983;50.744;7.086;2023-01-15T02:51:09;0.63;;;0.30;;
15764;SDS011;7983;50.744;7.086;2023-01-15T02:53:40;0.67;;;0.40;;
15764;SDS011;7983;50.744;7.086;2023-01-15T02:56:09;1.90;;;0.30;;
15764;SDS011;7983;50.744;7.086;2023-01-15T02:58:38;0.90;;;0.40;;
15764;SDS011;7983;50.744;7.086;2023-01-15T03:01:09;1.10;;;0.47;;
15764;SDS011;7983;50.744;7.086;2023-01-15T03:03:45;0.93;;;0.30;;
15764;SDS011;7983;50.744;7.086;2023-01-15T03:06:26;0.20;;;0.17;;
15764;SDS011;7983;50.744;7.086;2023-01-15T03:09:03;0.53;;;0.30;;
15764;SDS011;7983;50.744;7.086;2023-01-15T03:11:31;0.57;;;0.20;;
15764;SDS011;7983;50.744;7.086;2023-01-15T03:16:34;1.17;;;0.30;;
15764;SDS011;7983;50.744;7.086;2023-01-15T03:21:58;0.57;;;0.27;;
15764;SDS011;7983;50.744;7.086;2023-01-15T03:25:14;0.93;;;0.30;;
15764;SDS011;7983;50.744;7.086;2023-01-15T03:27:44;1.27;;;0.30;;
15764;SDS011;7983;50.744;7.086;2023-01-15T03:30:17;0.77;;;0.20;;
15764;SDS011;7983;50.744;7.086;2023-01-15T03:32:46;1.13;;;0.40;;
15764;SDS011;7983;50.744;7.086;2023-01-15T03:38:12;0.73;;;0.30;;
15764;SDS011;7983;50.744;7.086;2023-01-15T03:40:56;0.47;;;0.27;;
15764;SDS011;7983;50.744;7.086;2023-01-15T03:55:12;1.03;;;0.40;;
15764;SDS011;7983;50.744;7.086;2023-01-15T03:57:59;2.37;;;0.40;;
15764;SDS011;7983;50.744;7.086;2023-01-15T04:00:41;1.40;;;0.60;;
15764;SDS011;7983;50.744;7.086;2023-01-15T04:03:12;1.97;;;0.50;;
15764;SDS011;7983;50.744;7.086;2023-01-15T04:05:40;1.80;;;0.50;;
15764;SDS011;7983;50.744;7.086;2023-01-15T04:08:10;1.80;;;0.43;;
15764;SDS011;7983;50.744;7.086;2023-01-15T04:10:48;1.73;;;0.60;;
15764;SDS011;7983;50.744;7.086;2023-01-15T04:13:21;1.00;;;0.47;;
15764;SDS011;7983;50.744;7.086;2023-01-15T04:15:52;1.83;;;0.50;;
15764;SDS011;7983;50.744;7.086;2023-01-15T04:18:19;1.83;;;0.47;;
15764;SDS011;7983;50.744;7.086;2023-01-15T04:20:45;2.87;;;0.60;;
15764;SDS011;7983;50.744;7.086;2023-01-15T04:23:12;1.60;;;0.60;;
15764;SDS011;7983;50.744;7.086;2023-01-15T04:25:40;4.37;;;0.60;;
15764;SDS011;7983;50.744;7.086;2023-01-15T04:28:07;4.47;;;0.70;;
15764;SDS011;7983;50.744;7.086;2023-01-15T04:30:34;2.77;;;0.60;;
15764;SDS011;7983;50.744;7.086;2023-01-15T04:33:02;0.90;;;0.50;;
15764;SDS011;7983;50.744;7.086;2023-01-15T04:35:28;2.70;;;0.60;;
15764;SDS011;7983;50.744;7.086;2023-01-15T04:37:56;3.60;;;0.50;;
15764;SDS011;7983;50.744;7.086;2023-01-15T04:40:22;2.17;;;0.60;;
15764;SDS011;7983;50.744;7.086;2023-01-15T04:43:10;3.23;;;0.80;;
15764;SDS011;7983;50.744;7.086;2023-01-15T04:45:55;2.43;;;0.60;;
15764;SDS011;7983;50.744;7.086;2023-01-15T04:48:21;2.30;;;0.60;;
15764;SDS011;7983;50.744;7.086;2023-01-15T04:50:47;1.90;;;0.47;;
15764;SDS011;7983;50.744;7.086;2023-01-15T04:53:13;1.53;;;0.77;;
15764;SDS011;7983;50.744;7.086;2023-01-15T04:55:39;0.83;;;0.50;;
15764;SDS011;7983;50.744;7.086;2023-01-15T04:58:04;4.87;;;0.93;;
15764;SDS011;7983;50.744;7.086;2023-01-15T05:00:30;1.97;;;0.60;;
15764;SDS011;7983;50.744;7.086;2023-01-15T05:02:55;2.77;;;0.60;;
15764;SDS011;7983;50.744;7.086;2023-01-15T05:05:23;1.40;;;0.43;;
15764;SDS011;7983;50.744;7.086;2023-01-15T05:07:49;1.90;;;0.40;;
15764;SDS011;7983;50.744;7.086;2023-01-15T05:10:15;3.40;;;0.60;;
15764;SDS011;7983;50.744;7.086;2023-01-15T05:12:42;1.77;;;0.60;;
15764;SDS011;7983;50.744;7.086;2023-01-15T05:15:08;3.43;;;0.70;;
15764;SDS011;7983;50.744;7.086;2023-01-15T05:17:34;4.40;;;0.70;;
15764;SDS011;7983;50.744;7.086;2023-01-15T05:20:00;1.57;;;0.40;;
15764;SDS011;7983;50.744;7.086;2023-01-15T05:22:25;2.10;;;0.57;;
15764;SDS011;7983;50.744;7.086;2023-01-15T05:24:54;2.10;;;0.50;;
15764;SDS011;7983;50.744;7.086;2023-01-15T05:27:20;2.43;;;0.73;;
15764;SDS011;7983;50.744;7.086;2023-01-15T05:29:45;2.40;;;0.50;;
15764;SDS011;7983;50.744;7.086;2023-01-15T05:32:11;1.33;;;0.50;;
15764;SDS011;7983;50.744;7.086;2023-01-15T05:34:39;1.67;;;0.50;;
15764;SDS011;7983;50.744;7.086;2023-01-15T05:37:05;1.60;;;0.50;;
15764;SDS011;7983;50.744;7.086;2023-01-15T05:39:31;2.30;;;0.73;;
15764;SDS011;7983;50.744;7.086;2023-01-15T05:41:56;3.37;;;0.70;;
15764;SDS011;7983;50.744;7.086;2023-01-15T05:44:25;1.70;;;0.60;;
15764;SDS011;7983;50.744;7.086;2023-01-15T05:46:53;1.90;;;0.70;;
15764;SDS011;7983;50.744;7.086;2023-01-15T05:49:21;2.33;;;0.47;;
15764;SDS011;7983;50.744;7.086;2023-01-15T05:51:48;1.47;;;0.50;;
15764;SDS011;7983;50.744;7.086;2023-01-15T05:54:18;2.60;;;0.60;;
15764;SDS011;7983;50.744;7.086;2023-01-15T05:56:48;1.00;;;0.40;;
15764;SDS011;7983;50.744;7.086;2023-01-15T05:59:14;1.47;;;0.50;;
15764;SDS011;7983;50.744;7.086;2023-01-15T06:01:45;1.10;;;0.50;;
15764;SDS011;7983;50.744;7.086;2023-01-15T06:04:13;1.20;;;0.53;;
15764;SDS011;7983;50.744;7.086;2023-01-15T06:06:40;1.60;;;0.63;;
15764;SDS011;7983;50.744;7.086;2023-01-15T06:09:06;2.40;;;0.50;;
15764;SDS011;7983;50.744;7.086;2023-01-15T06:11:32;1.13;;;0.40;;
15764;SDS011;7983;50.744;7.086;2023-01-15T06:13:58;1.97;;;0.43;;
15764;SDS011;7983;50.744;7.086;2023-01-15T06:16:24;2.47;;;0.60;;
15764;SDS011;7983;50.744;7.086;2023-01-15T06:18:50;3.23;;;0.60;;
15764;SDS011;7983;50.744;7.086;2023-01-15T06:21:21;0.97;;;0.30;;
15764;SDS011;7983;50.744;7.086;2023-01-15T06:23:46;2.10;;;0.40;;
15764;SDS011;7983;50.744;7.086;2023-01-15T06:26:13;1.80;;;0.40;;
15764;SDS011;7983;50.744;7.086;2023-01-15T06:28:47;0.90;;;0.40;;
15764;SDS011;7983;50.744;7.086;2023-01-15T06:31:14;0.73;;;0.50;;
15764;SDS011;7983;50.744;7.086;2023-01-15T06:33:41;1.10;;;0.50;;
15764;SDS011;7983;50.744;7.086;2023-01-15T06:36:08;1.00;;;0.43;;
15764;SDS011;7983;50.744;7.086;2023-01-15T06:38:40;0.83;;;0.40;;
15764;SDS011;7983;50.744;7.086;2023-01-15T06:41:08;1.00;;;0.50;;
15764;SDS011;7983;50.744;7.086;2023-01-15T06:43:58;1.77;;;0.60;;
15764;SDS011;7983;50.744;7.086;2023-01-15T06:46:43;1.50;;;0.60;;
15764;SDS011;7983;50.744;7.086;2023-01-15T06:49:28;1.03;;;0.40;;
15764;SDS011;7983;50.744;7.086;2023-01-15T06:51:54;1.63;;;0.60;;
15764;SDS011;7983;50.744;7.086;2023-01-15T06:54:20;1.40;;;0.50;;
15764;SDS011;7983;50.744;7.086;2023-01-15T06:56:46;0.83;;;0.40;;
15764;SDS011;7983;50.744;7.086;2023-01-15T06:59:11;1.00;;;0.33;;
15764;SDS011;7983;50.744;7.086;2023-01-15T07:01:37;0.97;;;0.57;;
15764;SDS011;7983;50.744;7.086;2023-01-15T07:04:05;0.80;;;0.50;;
15764;SDS011;7983;50.744;7.086;2023-01-15T07:06:31;0.30;;;0.20;;
15764;SDS011;7983;50.744;7.086;2023-01-15T07:08:58;0.37;;;0.20;;
15764;SDS011;7983;50.744;7.086;2023-01-15T07:11:24;0.50;;;0.20;;
15764;SDS011;7983;50.744;7.086;2023-01-15T07:13:53;0.20;;;0.20;;
15764;SDS011;7983;50.744;7.086;2023-01-15T07:16:30;0.77;;;0.40;;
15764;SDS011;7983;50.744;7.086;2023-01-15T07:18:59;0.90;;;0.40;;
15764;SDS011;7983;50.744;7.086;2023-01-15T07:21:27;0.47;;;0.20;;
15764;SDS011;7983;50.744;7.086;2023-01-15T07:23:54;0.10;;;0.10;;
15764;SDS011;7983;50.744;7.086;2023-01-15T07:26:22;0.50;;;0.20;;
15764;SDS011;7983;50.744;7.086;2023-01-15T07:28:52;0.30;;;0.20;;
15764;SDS011;7983;50.744;7.086;2023-01-15T07:31:18;0.60;;;0.30;;
15764;SDS011;7983;50.744;7.086;2023-01-15T07:33:47;1.20;;;0.43;;
15764;SDS011;7983;50.744;7.086;2023-01-15T07:36:12;0.50;;;0.10;;
15764;SDS011;7983;50.744;7.086;2023-01-15T07:38:40;0.20;;;0.20;;
15764;SDS011;7983;50.744;7.086;2023-01-15T07:41:06;0.50;;;0.30;;
15764;SDS011;7983;50.744;7.086;2023-01-15T07:43:55;0.77;;;0.30;;
15764;SDS011;7983;50.744;7.086;2023-01-15T07:46:39;0.83;;;0.30;;
15764;SDS011;7983;50.744;7.086;2023-01-15T07:49:26;0.63;;;0.30;;
15764;SDS011;7983;50.744;7.086;2023-01-15T07:52:13;0.73;;;0.30;;
15764;SDS011;7983;50.744;7.086;2023-01-15T07:54:40;0.20;;;0.10;;
15764;SDS011;7983;50.744;7.086;2023-01-15T07:57:06;0.30;;;0.20;;
15764;SDS011;7983;50.744;7.086;2023-01-15T07:59:32;0.10;;;0.10;;
15764;SDS011;7983;50.744;7.086;2023-01-15T08:02:00;0.37;;;0.20;;
15764;SDS011;7983;50.744;7.086;2023-01-15T08:04:26;0.90;;;0.20;;
15764;SDS011;7983;50.744;7.086;2023-01-15T08:06:51;0.60;;;0.27;;
15764;SDS011;7983;50.744;7.086;2023-01-15T08:09:17;0.30;;;0.20;;
15764;SDS011;7983;50.744;7.086;2023-01-15T08:11:43;0.20;;;0.20;;
15764;SDS011;7983;50.744;7.086;2023-01-15T08:14:26;0.40;;;0.30;;
15764;SDS011;7983;50.744;7.086;2023-01-15T08:17:11;0.57;;;0.20;;
15764;SDS011;7983;50.744;7.086;2023-01-15T08:19:39;0.37;;;0.30;;
15764;SDS011;7983;50.744;7.086;2023-01-15T08:22:06;0.50;;;0.23;;
15764;SDS011;7983;50.744;7.086;2023-01-15T08:24:34;0.63;;;0.30;;
15764;SDS011;7983;50.744;7.086;2023-01-15T08:27:00;0.87;;;0.43;;
15764;SDS011;7983;50.744;7.086;2023-01-15T08:29:26;0.33;;;0.33;;
15764;SDS011;7983;50.744;7.086;2023-01-15T08:31:52;1.03;;;0.37;;
15764;SDS011;7983;50.744;7.086;2023-01-15T08:34:17;1.17;;;0.40;;
15764;SDS011;7983;50.744;7.086;2023-01-15T08:36:43;0.47;;;0.30;;
15764;SDS011;7983;50.744;7.086;2023-01-15T08:39:09;1.13;;;0.40;;
15764;SDS011;7983;50.744;7.086;2023-01-15T08:41:35;0.93;;;0.50;;
15764;SDS011;7983;50.744;7.086;2023-01-15T08:44:00;0.70;;;0.40;;
15764;SDS011;7983;50.744;7.086;2023-01-15T08:46:26;0.90;;;0.40;;
15764;SDS011;7983;50.744;7.086;2023-01-15T08:48:52;1.53;;;0.50;;
15764;SDS011;7983;50.744;7.086;2023-01-15T08:51:20;1.77;;;0.60;;
15764;SDS011;7983;50.744;7.086;2023-01-15T08:53:46;2.80;;;1.10;;
15764;SDS011;7983;50.744;7.086;2023-01-15T08:56:14;1.10;;;0.70;;
15764;SDS011;7983;50.744;7.086;2023-01-15T08:58:41;1.77;;;0.90;;
15764;SDS011;7983;50.744;7.086;2023-01-15T09:01:11;1.50;;;0.70;;
15764;SDS011;7983;50.744;7.086;2023-01-15T09:03:40;1.87;;;0.87;;
15764;SDS011;7983;50.744;7.086;2023-01-15T09:06:06;1.57;;;0.70;;
15764;SDS011;7983;50.744;7.086;2023-01-15T09:08:32;2.13;;;0.70;;
15764;SDS011;7983;50.744;7.086;2023-01-15T09:10:58;1.03;;;0.70;;
15764;SDS011;7983;50.744;7.086;2023-01-15T09:13:26;1.63;;;0.70;;
15764;SDS011;7983;50.744;7.086;2023-01-15T09:15:53;2.00;;;0.80;;
15764;SDS011;7983;50.744;7.086;2023-01-15T09:18:22;2.30;;;0.77;;
15764;SDS011;7983;50.744;7.086;2023-01-15T09:20:48;1.50;;;0.50;;
15764;SDS011;7983;50.744;7.086;2023-01-15T09:23:16;2.10;;;0.60;;
15764;SDS011;7983;50.744;7.086;2023-01-15T09:25:54;1.20;;;0.60;;
15764;SDS011;7983;50.744;7.086;2023-01-15T09:28:29;2.03;;;0.70;;
15764;SDS011;7983;50.744;7.086;2023-01-15T09:30:55;2.17;;;0.90;;
15764;SDS011;7983;50.744;7.086;2023-01-15T09:33:20;2.00;;;0.63;;
15764;SDS011;7983;50.744;7.086;2023-01-15T09:35:46;1.67;;;0.60;;
15764;SDS011;7983;50.744;7.086;2023-01-15T09:38:13;1.77;;;0.80;;
15764;SDS011;7983;50.744;7.086;2023-01-15T09:40:55;2.43;;;0.67;;
15764;SDS011;7983;50.744;7.086;2023-01-15T09:44:03;2.00;;;0.70;;
15764;SDS011;7983;50.744;7.086;2023-01-15T09:51:56;6.07;;;1.20;;
15764;SDS011;7983;50.744;7.086;2023-01-15T09:57:19;2.43;;;0.70;;
15764;SDS011;7983;50.744;7.086;2023-01-15T09:59:48;1.87;;;0.50;;
15764;SDS011;7983;50.744;7.086;2023-01-15T10:02:26;2.00;;;0.53;;
15764;SDS011;7983;50.744;7.086;2023-01-15T10:05:18;2.67;;;1.00;;
15764;SDS011;7983;50.744;7.086;2023-01-15T10:08:25;3.20;;;0.70;;
15764;SDS011;7983;50.744;7.086;2023-01-15T10:11:03;1.93;;;0.77;;
15764;SDS011;7983;50.744;7.086;2023-01-15T10:16:42;2.17;;;0.60;;
15764;SDS011;7983;50.744;7.086;2023-01-15T10:19:08;3.17;;;0.97;;
15764;SDS011;7983;50.744;7.086;2023-01-15T10:21:57;1.73;;;0.67;;
15764;SDS011;7983;50.744;7.086;2023-01-15T10:24:35;4.03;;;1.00;;
15764;SDS011;7983;50.744;7.086;2023-01-15T10:27:20;1.27;;;0.77;;
15764;SDS011;7983;50.744;7.086;2023-01-15T10:29:52;1.97;;;0.70;;
15764;SDS011;7983;50.744;7.086;2023-01-15T10:37:43;2.73;;;0.70;;
15764;SDS011;7983;50.744;7.086;2023-01-15T10:40:45;3.17;;;1.00;;
15764;SDS011;7983;50.744;7.086;2023-01-15T10:46:11;4.00;;;1.20;;
15764;SDS011;7983;50.744;7.086;2023-01-15T10:48:39;3.27;;;1.03;;
15764;SDS011;7983;50.744;7.086;2023-01-15T10:54:04;4.40;;;0.90;;
15764;SDS011;7983;50.744;7.086;2023-01-15T10:57:12;2.77;;;1.00;;
15764;SDS011;7983;50.744;7.086;2023-01-15T10:59:55;3.50;;;1.10;;
15764;SDS011;7983;50.744;7.086;2023-01-15T11:05:04;3.07;;;0.97;;
15764;SDS011;7983;50.744;7.086;2023-01-15T11:07:43;3.63;;;1.10;;
15764;SDS011;7983;50.744;7.086;2023-01-15T11:10:12;3.47;;;1.17;;
15764;SDS011;7983;50.744;7.086;2023-01-15T11:12:42;2.07;;;0.73;;
15764;SDS011;7983;50.744;7.086;2023-01-15T11:15:38;3.47;;;0.90;;
15764;SDS011;7983;50.744;7.086;2023-01-15T11:18:31;2.60;;;1.17;;
15764;SDS011;7983;50.744;7.086;2023-01-15T11:21:21;3.50;;;1.20;;
15764;SDS011;7983;50.744;7.086;2023-01-15T11:23:48;2.83;;;0.97;;
15764;SDS011;7983;50.744;7.086;2023-01-15T11:28:49;2.80;;;0.77;;
15764;SDS011;7983;50.744;7.086;2023-01-15T11:31:16;1.63;;;0.60;;
15764;SDS011;7983;50.744;7.086;2023-01-15T11:33:58;2.27;;;0.80;;
15764;SDS011;7983;50.744;7.086;2023-01-15T11:36:30;2.30;;;0.80;;
15764;SDS011;7983;50.744;7.086;2023-01-15T11:38:58;1.70;;;0.80;;
15764;SDS011;7983;50.744;7.086;2023-01-15T11:41:28;3.10;;;0.80;;
15764;SDS011;7983;50.744;7.086;2023-01-15T11:44:14;2.07;;;0.80;;
15764;SDS011;7983;50.744;7.086;2023-01-15T11:47:09;1.57;;;0.60;;
15764;SDS011;7983;50.744;7.086;2023-01-15T11:49:57;2.10;;;0.77;;
15764;SDS011;7983;50.744;7.086;2023-01-15T11:52:51;4.95;;;1.10;;
15764;SDS011;7983;50.744;7.086;2023-01-15T11:55:20;3.60;;;1.00;;
15764;SDS011;7983;50.744;7.086;2023-01-15T11:57:51;4.07;;;0.80;;
15764;SDS011;7983;50.744;7.086;2023-01-15T12:02:59;2.67;;;0.97;;
15764;SDS011;7983;50.744;7.086;2023-01-15T12:05:30;3.63;;;0.77;;
15764;SDS011;7983;50.744;7.086;2023-01-15T12:08:11;2.27;;;0.80;;
15764;SDS011;7983;50.744;7.086;2023-01-15T12:19:41;1.83;;;0.73;;
15764;SDS011;7983;50.744;7.086;2023-01-15T12:22:33;2.23;;;0.70;;
15764;SDS011;7983;50.744;7.086;2023-01-15T12:35:52;3.38;;;1.00;;
15764;SDS011;7983;50.744;7.086;2023-01-15T12:38:28;3.40;;;0.93;;
15764;SDS011;7983;50.744;7.086;2023-01-15T12:41:01;1.95;;;0.80;;
15764;SDS011;7983;50.744;7.086;2023-01-15T12:43:35;2.83;;;0.83;;
15764;SDS011;7983;50.744;7.086;2023-01-15T12:46:21;3.58;;;1.13;;
15764;SDS011;7983;50.744;7.086;2023-01-15T12:49:10;2.72;;;1.00;;
15764;SDS011;7983;50.744;7.086;2023-01-15T12:54:53;2.22;;;0.80;;
15764;SDS011;7983;50.744;7.086;2023-01-15T12:57:50;2.83;;;0.80;;
15764;SDS011;7983;50.744;7.086;2023-01-15T13:00:20;1.50;;;0.80;;
15764;SDS011;7983;50.744;7.086;2023-01-15T13:06:18;1.80;;;0.68;;
15764;SDS011;7983;50.744;7.086;2023-01-15T13:08:29;1.85;;;0.73;;
15764;SDS011;7983;50.744;7.086;2023-01-15T13:11:04;3.25;;;0.90;;
15764;SDS011;7983;50.744;7.086;2023-01-15T13:13:33;0.80;;;0.50;;
15764;SDS011;7983;50.744;7.086;2023-01-15T13:21:23;3.05;;;0.70;;
15764;SDS011;7983;50.744;7.086;2023-01-15T13:32:22;3.03;;;0.82;;
15764;SDS011;7983;50.744;7.086;2023-01-15T13:35:08;1.83;;;0.85;;
15764;SDS011;7983;50.744;7.086;2023-01-15T13:37:46;3.38;;;0.80;;
15764;SDS011;7983;50.744;7.086;2023-01-15T13:40:26;1.83;;;0.77;;
15764;SDS011;7983;50.744;7.086;2023-01-15T13:43:32;3.00;;;0.95;;
15764;SDS011;7983;50.744;7.086;2023-01-15T13:46:03;2.67;;;0.90;;
15764;SDS011;7983;50.744;7.086;2023-01-15T13:51:06;3.27;;;0.90;;
15764;SDS011;7983;50.744;7.086;2023-01-15T13:53:56;1.60;;;0.90;;
15764;SDS011;7983;50.744;7.086;2023-01-15T13:56:25;1.87;;;0.60;;
15764;SDS011;7983;50.744;7.086;2023-01-15T13:59:00;2.27;;;0.67;;
15764;SDS011;7983;50.744;7.086;2023-01-15T14:06:43;2.60;;;0.77;;
15764;SDS011;7983;50.744;7.086;2023-01-15T14:09:10;2.70;;;0.80;;
15764;SDS011;7983;50.744;7.086;2023-01-15T14:11:36;2.08;;;0.75;;
15764;SDS011;7983;50.744;7.086;2023-01-15T14:19:46;1.50;;;0.70;;
15764;SDS011;7983;50.744;7.086;2023-01-15T14:31:22;1.73;;;0.80;;
15764;SDS011;7983;50.744;7.086;2023-01-15T14:34:19;2.30;;;0.70;;
15764;SDS011;7983;50.744;7.086;2023-01-15T15:03:56;1.00;;;0.60;;
15764;SDS011;7983;50.744;7.086;2023-01-15T15:06:33;1.30;;;0.57;;
15764;SDS011;7983;50.744;7.086;2023-01-15T15:09:06;1.70;;;0.90;;
15764;SDS011;7983;50.744;7.086;2023-01-15T15:11:41;1.57;;;0.50;;
15764;SDS011;7983;50.744;7.086;2023-01-15T15:14:29;2.13;;;0.70;;
15764;SDS011;7983;50.744;7.086;2023-01-15T15:16:59;1.80;;;0.90;;
15764;SDS011;7983;50.744;7.086;2023-01-15T15:19:29;2.43;;;0.87;;
15764;SDS011;7983;50.744;7.086;2023-01-15T15:22:05;2.40;;;0.70;;
15764;SDS011;7983;50.744;7.086;2023-01-15T15:24:39;1.37;;;0.70;;
15764;SDS011;7983;50.744;7.086;2023-01-15T15:27:14;2.27;;;0.80;;
15764;SDS011;7983;50.744;7.086;2023-01-15T15:29:41;2.77;;;0.80;;
15764;SDS011;7983;50.744;7.086;2023-01-15T15:32:07;1.33;;;0.70;;
15764;SDS011;7983;50.744;7.086;2023-01-15T15:34:37;0.97;;;0.50;;
15764;SDS011;7983;50.744;7.086;2023-01-15T15:37:23;1.23;;;0.70;;
15764;SDS011;7983;50.744;7.086;2023-01-15T15:42:26;2.37;;;0.70;;
15764;SDS011;7983;50.744;7.086;2023-01-15T15:45:21;2.00;;;0.60;;
15764;SDS011;7983;50.744;7.086;2023-01-15T15:48:17;1.23;;;0.50;;
15764;SDS011;7983;50.744;7.086;2023-01-15T15:51:20;2.27;;;0.70;;
15764;SDS011;7983;50.744;7.086;2023-01-15T15:56:30;1.13;;;0.50;;
15764;SDS011;7983;50.744;7.086;2023-01-15T15:59:00;3.20;;;0.67;;
15764;SDS011;7983;50.744;7.086;2023-01-15T16:01:29;2.40;;;0.80;;
15764;SDS011;7983;50.744;7.086;2023-01-15T16:04:02;1.63;;;0.50;;
15764;SDS011;7983;50.744;7.086;2023-01-15T16:06:28;1.43;;;0.50;;
15764;SDS011;7983;50.744;7.086;2023-01-15T16:08:55;1.50;;;0.70;;
15764;SDS011;7983;50.744;7.086;2023-01-15T16:11:29;2.53;;;0.77;;
15764;SDS011;7983;50.744;7.086;2023-01-15T16:14:02;2.40;;;0.80;;
15764;SDS011;7983;50.744;7.086;2023-01-15T16:16:35;2.00;;;0.73;;
15764;SDS011;7983;50.744;7.086;2023-01-15T16:19:01;2.77;;;0.80;;
15764;SDS011;7983;50.744;7.086;2023-01-15T16:24:01;2.27;;;0.90;;
15764;SDS011;7983;50.744;7.086;2023-01-15T16:26:36;2.17;;;0.87;;
15764;SDS011;7983;50.744;7.086;2023-01-15T16:29:15;3.00;;;0.80;;
15764;SDS011;7983;50.744;7.086;2023-01-15T16:31:46;1.60;;;0.60;;
15764;SDS011;7983;50.744;7.086;2023-01-15T16:34:18;1.93;;;0.63;;
15764;SDS011;7983;50.744;7.086;2023-01-15T16:36:46;3.23;;;0.80;;
15764;SDS011;7983;50.744;7.086;2023-01-15T16:39:24;1.93;;;0.80;;
15764;SDS011;7983;50.744;7.086;2023-01-15T16:41:53;2.93;;;0.80;;
15764;SDS011;7983;50.744;7.086;2023-01-15T16:44:37;1.93;;;0.70;;
15764;SDS011;7983;50.744;7.086;2023-01-15T16:47:32;0.83;;;0.60;;
15764;SDS011;7983;50.744;7.086;2023-01-15T16:52:51;1.77;;;0.70;;
15764;SDS011;7983;50.744;7.086;2023-01-15T17:00:37;2.37;;;0.80;;
15764;SDS011;7983;50.744;7.086;2023-01-15T17:05:50;2.53;;;0.60;;
15764;SDS011;7983;50.744;7.086;2023-01-15T17:11:23;2.57;;;0.80;;
15764;SDS011;7983;50.744;7.086;2023-01-15T17:14:19;2.67;;;0.77;;
15764;SDS011;7983;50.744;7.086;2023-01-15T17:17:13;1.10;;;0.60;;
15764;SDS011;7983;50.744;7.086;2023-01-15T17:19:39;2.43;;;0.70;;
15764;SDS011;7983;50.744;7.086;2023-01-15T17:22:15;2.20;;;0.60;;
15764;SDS011;7983;50.744;7.086;2023-01-15T17:24:47;2.27;;;0.87;;
15764;SDS011;7983;50.744;7.086;2023-01-15T17:27:14;2.03;;;0.80;;
15764;SDS011;7983;50.744;7.086;2023-01-15T17:29:39;2.00;;;0.73;;
15764;SDS011;7983;50.744;7.086;2023-01-15T17:32:08;2.00;;;0.70;;
15764;SDS011;7983;50.744;7.086;2023-01-15T17:34:50;3.60;;;0.90;;
15764;SDS011;7983;50.744;7.086;2023-01-15T17:37:18;2.47;;;0.60;;
15764;SDS011;7983;50.744;7.086;2023-01-15T17:39:44;1.53;;;0.60;;
15764;SDS011;7983;50.744;7.086;2023-01-15T17:42:16;1.57;;;0.60;;
15764;SDS011;7983;50.744;7.086;2023-01-15T17:44:43;2.27;;;0.80;;
15764;SDS011;7983;50.744;7.086;2023-01-15T17:47:09;1.57;;;0.70;;
15764;SDS011;7983;50.744;7.086;2023-01-15T17:49:35;3.10;;;0.70;;
15764;SDS011;7983;50.744;7.086;2023-01-15T17:52:07;1.00;;;0.50;;
15764;SDS011;7983;50.744;7.086;2023-01-15T17:54:42;1.10;;;0.70;;
15764;SDS011;7983;50.744;7.086;2023-01-15T17:57:26;1.47;;;0.60;;
15764;SDS011;7983;50.744;7.086;2023-01-15T18:00:10;1.47;;;0.60;;
15764;SDS011;7983;50.744;7.086;2023-01-15T18:02:55;1.40;;;0.70;;
15764;SDS011;7983;50.744;7.086;2023-01-15T18:05:39;0.90;;;0.50;;
15764;SDS011;7983;50.744;7.086;2023-01-15T18:08:08;0.80;;;0.50;;
15764;SDS011;7983;50.744;7.086;2023-01-15T18:10:42;2.40;;;0.70;;
15764;SDS011;7983;50.744;7.086;2023-01-15T18:13:08;1.93;;;0.80;;
15764;SDS011;7983;50.744;7.086;2023-01-15T18:15:34;2.00;;;0.80;;
15764;SDS011;7983;50.744;7.086;2023-01-15T18:17:59;1.90;;;0.80;;
15764;SDS011;7983;50.744;7.086;2023-01-15T18:20:27;1.10;;;0.70;;
15764;SDS011;7983;50.744;7.086;2023-01-15T18:22:53;2.20;;;0.90;;